Time;durP1;ratioP1;P1;durP2;ratioP2;P2;SDS_P1;SDS_P2;PMS_P1;PMS_P2;Temp;Humidity;BMP_temperature;BMP_pressure;BME280_temperature;BME280_humidity;BME280_pressure;Samples;Min_cycle;Max_cycle;Signal;HPM_P1;HPM_P2
2021/05/09 00:00:42;;;;;;;6.05;1.60;;;7.30;99.90;;;;;;5091010;28;20539;-55
2021/05/09 00:03:08;;;;;;;9.20;1.38;;;7.40;99.90;;;;;;5091862;28;20641;-54
2021/05/09 00:05:34;;;;;;;5.38;1.23;;;7.40;99.90;;;;;;5090920;28;20181;-55
2021/05/09 00:08:00;;;;;;;5.80;1.30;;;7.40;99.90;;;;;;5091888;28;20589;-54
2021/05/09 00:10:26;;;;;;;6.45;1.60;;;7.40;99.90;;;;;;5092024;28;20176;-54
2021/05/09 00:12:52;;;;;;;5.45;1.48;;;7.40;99.90;;;;;;5093898;28;20189;-52
2021/05/09 00:15:22;;;;;;;6.13;1.55;;;7.40;99.90;;;;;;5096212;28;20251;-52
2021/05/09 00:17:48;;;;;;;5.57;1.60;;;7.40;99.90;;;;;;5095741;28;20197;-54
2021/05/09 00:20:14;;;;;;;13.35;1.52;;;7.40;99.90;;;;;;5093956;28;20197;-54
2021/05/09 00:22:40;;;;;;;9.05;1.40;;;7.40;99.90;;;;;;5095139;28;20641;-53
2021/05/09 00:25:07;;;;;;;4.75;1.38;;;7.40;99.90;;;;;;5095367;28;20177;-54
2021/05/09 00:27:33;;;;;;;4.60;1.35;;;7.40;99.90;;;;;;5096005;28;20181;-55
2021/05/09 00:29:59;;;;;;;8.80;1.50;;;7.40;99.90;;;;;;5094530;28;20525;-53
2021/05/09 00:32:25;;;;;;;5.13;1.38;;;7.40;99.90;;;;;;5095203;28;20188;-54
2021/05/09 00:34:51;;;;;;;7.53;1.92;;;7.40;99.90;;;;;;5095177;28;20212;-55
2021/05/09 00:37:17;;;;;;;3.15;1.35;;;7.40;99.90;;;;;;5094940;28;20223;-55
2021/05/09 00:39:44;;;;;;;3.63;1.40;;;7.40;99.90;;;;;;5095560;28;20178;-57
2021/05/09 00:42:10;;;;;;;5.35;1.30;;;7.30;99.90;;;;;;5095867;28;20192;-54
2021/05/09 00:44:37;;;;;;;5.15;1.63;;;7.40;99.90;;;;;;5094676;28;20178;-55
2021/05/09 00:47:07;;;;;;;8.65;1.80;;;7.30;99.90;;;;;;5095353;28;20649;-51
2021/05/09 00:49:33;;;;;;;5.43;1.70;;;7.40;99.90;;;;;;5095607;28;20184;-54
2021/05/09 00:51:59;;;;;;;8.70;1.60;;;7.40;99.90;;;;;;5093758;28;20641;-53
2021/05/09 00:54:26;;;;;;;3.10;1.10;;;7.40;99.90;;;;;;5092933;28;20186;-53
2021/05/09 00:56:52;;;;;;;6.78;1.27;;;7.40;99.90;;;;;;5076741;28;20201;-54
2021/05/09 00:59:18;;;;;;;3.15;1.45;;;7.40;99.90;;;;;;5060230;28;20648;-54
2021/05/09 01:01:44;;;;;;;4.90;1.40;;;7.40;99.90;;;;;;5094232;28;20185;-53
2021/05/09 01:04:12;;;;;;;5.25;1.55;;;7.40;99.90;;;;;;5085388;28;20452;-56
2021/05/09 01:06:38;;;;;;;2.63;1.38;;;7.40;99.90;;;;;;5093471;28;20174;-52
2021/05/09 01:09:05;;;;;;;4.32;1.27;;;7.40;99.90;;;;;;5092945;28;20255;-55
2021/05/09 01:11:31;;;;;;;5.70;1.92;;;7.40;99.90;;;;;;5095123;28;20189;-52
2021/05/09 01:13:57;;;;;;;5.40;1.58;;;7.40;99.90;;;;;;5095037;28;20196;-50
2021/05/09 01:16:23;;;;;;;5.78;1.75;;;7.40;99.90;;;;;;5093541;28;20209;-52
2021/05/09 01:18:49;;;;;;;8.45;1.60;;;7.40;99.90;;;;;;5094515;28;20676;-53
2021/05/09 01:21:15;;;;;;;5.68;1.73;;;7.40;99.90;;;;;;5091626;28;20188;-54
2021/05/09 01:23:41;;;;;;;5.38;1.70;;;7.40;99.90;;;;;;5092739;28;20177;-50
2021/05/09 01:26:07;;;;;;;8.07;2.42;;;7.30;99.90;;;;;;5093801;28;20181;-52
2021/05/09 01:28:33;;;;;;;7.95;1.90;;;7.30;99.90;;;;;;5094553;28;20642;-53
2021/05/09 01:31:00;;;;;;;10.85;2.03;;;7.30;99.90;;;;;;5094759;28;20200;-54
2021/05/09 01:33:26;;;;;;;6.63;1.88;;;7.30;99.90;;;;;;5094994;28;20181;-52
2021/05/09 01:35:52;;;;;;;6.22;1.77;;;7.20;99.90;;;;;;5094083;28;20686;-54
2021/05/09 01:38:18;;;;;;;7.72;2.03;;;7.20;99.90;;;;;;5093678;28;20220;-53
2021/05/09 01:40:44;;;;;;;3.33;1.60;;;7.20;99.90;;;;;;5094521;28;20173;-54
2021/05/09 01:43:10;;;;;;;5.22;2.63;;;7.10;99.90;;;;;;5094665;28;20654;-53
2021/05/09 01:45:36;;;;;;;5.18;1.73;;;7.10;99.90;;;;;;5094387;28;20177;-55
2021/05/09 01:48:03;;;;;;;6.38;1.80;;;7.00;99.90;;;;;;5092006;28;20545;-52
2021/05/09 01:50:29;;;;;;;6.03;2.25;;;7.00;99.90;;;;;;5093513;28;20170;-51
2021/05/09 01:52:55;;;;;;;7.07;2.03;;;6.90;99.90;;;;;;5093975;28;20182;-50
2021/05/09 01:55:22;;;;;;;7.32;2.45;;;6.90;99.90;;;;;;5076096;28;20180;-52
2021/05/09 01:57:49;;;;;;;5.50;1.70;;;6.90;99.90;;;;;;5093655;28;20205;-51
2021/05/09 02:00:16;;;;;;;3.65;2.00;;;6.90;99.90;;;;;;5092448;28;20663;-51
2021/05/09 02:02:42;;;;;;;8.82;2.10;;;6.90;99.90;;;;;;5092770;28;20181;-53
2021/05/09 02:05:09;;;;;;;5.95;2.35;;;6.90;99.90;;;;;;5093869;28;20170;-52
2021/05/09 02:07:35;;;;;;;3.90;1.70;;;6.90;99.90;;;;;;5094067;28;20181;-54
2021/05/09 02:10:04;;;;;;;3.97;1.92;;;6.90;99.90;;;;;;5092742;28;20650;-51
2021/05/09 02:12:30;;;;;;;7.10;2.33;;;6.80;99.90;;;;;;5094206;28;20185;-52
2021/05/09 02:14:56;;;;;;;4.07;1.65;;;6.80;99.90;;;;;;5093113;28;20192;-52
2021/05/09 02:17:22;;;;;;;5.57;1.92;;;6.80;99.90;;;;;;5093787;28;20205;-52
2021/05/09 02:19:48;;;;;;;7.03;2.20;;;6.80;99.90;;;;;;5092348;28;20564;-52
2021/05/09 02:22:15;;;;;;;3.10;1.80;;;6.80;99.90;;;;;;5092596;28;20185;-51
2021/05/09 02:24:41;;;;;;;4.93;2.17;;;6.80;99.90;;;;;;5092548;28;20614;-53
2021/05/09 02:27:07;;;;;;;7.95;1.98;;;6.80;99.90;;;;;;5091975;28;20192;-51
2021/05/09 02:29:33;;;;;;;4.20;1.80;;;6.70;99.90;;;;;;5093508;28;20189;-52
2021/05/09 02:32:00;;;;;;;4.13;2.30;;;6.60;99.90;;;;;;5093039;28;20259;-51
2021/05/09 02:34:26;;;;;;;3.42;2.20;;;6.40;99.90;;;;;;5091482;28;20539;-52
2021/05/09 02:36:52;;;;;;;2.95;1.98;;;6.30;99.90;;;;;;5093303;28;20212;-51
2021/05/09 02:39:18;;;;;;;6.63;2.45;;;6.20;99.90;;;;;;5092853;28;20173;-51
2021/05/09 02:41:44;;;;;;;5.57;2.40;;;6.20;99.90;;;;;;5092039;28;20181;-51
2021/05/09 02:44:10;;;;;;;10.30;2.78;;;6.10;99.90;;;;;;5092291;28;20192;-52
2021/05/09 02:46:37;;;;;;;8.85;3.85;;;6.10;99.90;;;;;;5093242;28;20622;-53
2021/05/09 02:49:03;;;;;;;8.13;3.20;;;6.10;99.90;;;;;;5092700;28;20181;-51
2021/05/09 02:51:29;;;;;;;4.93;2.33;;;6.10;99.90;;;;;;5092298;28;20539;-49
2021/05/09 02:53:55;;;;;;;8.50;2.28;;;6.00;99.90;;;;;;5092922;28;20507;-49
2021/05/09 02:56:22;;;;;;;10.00;2.85;;;5.90;99.90;;;;;;5092925;28;20181;-52
2021/05/09 02:58:48;;;;;;;8.57;3.65;;;5.90;99.90;;;;;;5092499;28;20217;-49
2021/05/09 03:01:14;;;;;;;8.73;4.55;;;5.90;99.90;;;;;;5092601;28;20173;-54
2021/05/09 03:03:40;;;;;;;7.65;3.22;;;5.90;99.90;;;;;;5092408;28;20188;-53
2021/05/09 03:06:06;;;;;;;12.32;3.35;;;5.80;99.90;;;;;;5092898;28;20182;-50
2021/05/09 03:08:34;;;;;;;12.15;3.08;;;5.80;99.90;;;;;;5092496;28;20189;-50
2021/05/09 03:11:01;;;;;;;8.75;3.25;;;5.70;99.90;;;;;;5092435;28;20161;-52
2021/05/09 03:13:27;;;;;;;8.63;3.70;;;5.70;99.90;;;;;;5091620;28;20626;-52
2021/05/09 03:15:53;;;;;;;10.77;4.72;;;5.70;99.90;;;;;;5092772;28;20185;-49
2021/05/09 03:18:20;;;;;;;11.57;4.72;;;5.70;99.90;;;;;;5092343;28;20212;-51
2021/05/09 03:20:46;;;;;;;13.88;3.67;;;5.60;99.90;;;;;;5091516;28;20189;-49
2021/05/09 03:23:12;;;;;;;8.63;4.22;;;5.60;99.90;;;;;;5091826;28;20196;-52
2021/05/09 03:25:38;;;;;;;5.15;3.00;;;5.60;99.90;;;;;;5092549;28;20181;-49
2021/05/09 03:28:04;;;;;;;9.43;3.30;;;5.50;99.90;;;;;;5092148;28;20177;-51
2021/05/09 03:30:30;;;;;;;5.65;2.15;;;5.50;99.90;;;;;;5091787;28;20645;-49
2021/05/09 03:32:56;;;;;;;5.97;3.03;;;5.50;99.90;;;;;;5092711;28;20177;-53
2021/05/09 03:35:23;;;;;;;7.13;3.15;;;5.50;99.90;;;;;;5090847;28;20220;-54
2021/05/09 03:37:49;;;;;;;6.65;2.95;;;5.60;99.90;;;;;;5092297;28;20209;-52
2021/05/09 03:40:15;;;;;;;12.13;5.18;;;5.60;99.90;;;;;;5091830;28;20182;-53
2021/05/09 03:42:41;;;;;;;10.75;3.63;;;5.60;99.90;;;;;;5091087;28;20177;-52
2021/05/09 03:45:08;;;;;;;7.70;3.22;;;5.60;99.90;;;;;;5091371;28;20165;-49
2021/05/09 03:47:36;;;;;;;10.80;2.70;;;5.60;99.90;;;;;;5091485;28;20189;-52
2021/05/09 03:50:02;;;;;;;14.43;3.00;;;5.60;99.90;;;;;;5092406;28;20184;-52
2021/05/09 03:52:28;;;;;;;12.40;3.35;;;5.60;99.90;;;;;;5091103;28;20185;-51
2021/05/09 03:54:54;;;;;;;14.48;3.88;;;5.60;99.90;;;;;;5091503;28;20204;-51
2021/05/09 03:57:20;;;;;;;7.43;3.55;;;5.60;99.90;;;;;;5091479;28;20209;-54
2021/05/09 03:59:46;;;;;;;7.22;4.43;;;5.60;99.90;;;;;;5092561;28;20169;-54
2021/05/09 04:02:12;;;;;;;14.73;4.18;;;5.60;99.90;;;;;;5092330;28;20177;-51
2021/05/09 04:04:39;;;;;;;9.65;3.40;;;5.60;99.90;;;;;;5092228;28;20185;-52
2021/05/09 04:07:05;;;;;;;20.42;3.90;;;5.60;99.90;;;;;;5091080;28;20535;-54
2021/05/09 04:09:31;;;;;;;10.52;4.63;;;5.60;99.90;;;;;;5091704;28;20182;-53
2021/05/09 04:11:57;;;;;;;17.95;4.88;;;5.60;99.90;;;;;;5091745;28;20182;-54
2021/05/09 04:14:23;;;;;;;14.27;6.55;;;5.70;99.90;;;;;;5091774;28;20188;-54
2021/05/09 04:16:49;;;;;;;19.10;6.90;;;5.70;99.90;;;;;;5090437;28;20275;-53
2021/05/09 04:19:15;;;;;;;15.95;4.20;;;5.70;99.90;;;;;;5091729;28;20205;-55
2021/05/09 04:21:41;;;;;;;13.82;6.43;;;5.70;99.90;;;;;;5092056;28;20185;-57
2021/05/09 04:24:08;;;;;;;8.57;3.97;;;5.70;99.90;;;;;;5083260;28;20541;-55
2021/05/09 04:26:35;;;;;;;9.57;4.82;;;5.70;99.90;;;;;;5090550;28;20181;-54
2021/05/09 04:29:01;;;;;;;17.75;5.10;;;5.70;99.90;;;;;;5090823;28;20181;-53
2021/05/09 04:31:27;;;;;;;12.95;4.72;;;5.70;99.90;;;;;;5091308;28;20181;-55
2021/05/09 04:33:53;;;;;;;11.65;5.07;;;5.70;99.90;;;;;;5092463;28;20641;-53
2021/05/09 04:36:19;;;;;;;12.63;4.78;;;5.70;99.90;;;;;;5091551;28;20213;-54
2021/05/09 04:38:46;;;;;;;20.75;7.50;;;5.80;99.90;;;;;;5089416;28;20225;-53
2021/05/09 04:41:12;;;;;;;14.95;5.28;;;5.80;99.90;;;;;;5090879;28;20193;-53
2021/05/09 04:43:39;;;;;;;10.77;5.60;;;5.70;99.90;;;;;;5091870;28;20177;-54
2021/05/09 04:46:05;;;;;;;15.40;5.50;;;5.70;99.90;;;;;;5090621;28;20173;-55
2021/05/09 04:48:32;;;;;;;8.10;4.10;;;5.80;99.90;;;;;;5090666;28;20201;-51
2021/05/09 04:50:58;;;;;;;15.23;5.78;;;5.80;99.90;;;;;;5091431;28;20181;-52
2021/05/09 04:53:28;;;;;;;14.77;6.28;;;5.80;99.90;;;;;;5091338;28;20177;-49
2021/05/09 04:55:58;;;;;;;8.50;4.57;;;5.80;99.90;;;;;;5091358;28;20231;-50
2021/05/09 04:58:25;;;;;;;13.93;5.05;;;5.80;99.90;;;;;;5093145;28;20279;-51
2021/05/09 05:00:55;;;;;;;18.02;7.63;;;5.80;99.90;;;;;;5094098;28;20169;-52
2021/05/09 05:03:21;;;;;;;15.93;7.60;;;5.80;99.90;;;;;;5090754;28;20186;-50
2021/05/09 05:05:47;;;;;;;16.08;6.43;;;5.80;99.90;;;;;;5095002;28;20192;-50
2021/05/09 05:08:13;;;;;;;20.40;7.43;;;5.80;99.90;;;;;;5094882;28;20637;-52
2021/05/09 05:10:39;;;;;;;17.15;8.43;;;5.80;99.90;;;;;;5094361;28;20189;-51
2021/05/09 05:13:27;;;;;;;18.15;7.78;;;5.80;99.90;;;;;;5094726;28;20247;-51
2021/05/09 05:15:56;;;;;;;14.70;5.25;;;5.80;99.90;;;;;;5094388;28;20243;-51
2021/05/09 05:18:23;;;;;;;26.60;5.60;;;5.80;99.90;;;;;;5089122;28;20201;-51
2021/05/09 05:20:49;;;;;;;12.55;5.35;;;5.80;99.90;;;;;;5094027;28;20200;-51
2021/05/09 05:23:15;;;;;;;28.35;7.93;;;5.70;99.90;;;;;;5094751;28;20181;-52
2021/05/09 05:25:42;;;;;;;12.10;5.57;;;5.70;99.90;;;;;;5093666;28;20291;-56
2021/05/09 05:28:08;;;;;;;12.30;5.22;;;5.70;99.90;;;;;;5094259;28;20188;-56
2021/05/09 05:30:34;;;;;;;12.50;6.05;;;5.70;99.90;;;;;;5094761;28;20185;-54
2021/05/09 05:33:00;;;;;;;15.30;6.00;;;5.70;99.90;;;;;;5092614;28;20188;-54
2021/05/09 05:35:27;;;;;;;13.68;5.70;;;5.70;99.90;;;;;;5093938;28;20217;-55
2021/05/09 05:37:53;;;;;;;12.02;6.25;;;5.70;99.90;;;;;;5094365;28;20225;-54
2021/05/09 05:40:20;;;;;;;11.38;5.97;;;5.70;99.90;;;;;;5094205;28;20181;-52
2021/05/09 05:42:46;;;;;;;12.48;5.90;;;5.80;99.90;;;;;;5093927;28;20180;-55
2021/05/09 05:45:12;;;;;;;13.70;7.90;;;5.80;99.90;;;;;;5094814;28;20173;-53
2021/05/09 05:47:38;;;;;;;10.50;6.18;;;5.80;99.90;;;;;;5094566;28;20181;-54
2021/05/09 05:50:05;;;;;;;24.35;7.05;;;5.90;99.90;;;;;;5094839;28;20637;-54
2021/05/09 05:52:31;;;;;;;14.85;7.15;;;5.90;99.90;;;;;;5094646;28;20189;-53
2021/05/09 05:54:58;;;;;;;14.50;7.13;;;5.90;99.90;;;;;;5094835;28;20208;-53
2021/05/09 05:57:24;;;;;;;9.85;5.90;;;6.00;99.90;;;;;;5094042;28;20177;-54
2021/05/09 05:59:50;;;;;;;21.40;7.25;;;5.90;99.90;;;;;;5094440;28;20216;-54
2021/05/09 06:02:16;;;;;;;15.90;8.45;;;6.00;99.90;;;;;;5094555;28;20166;-54
2021/05/09 06:04:43;;;;;;;17.08;7.22;;;6.00;99.90;;;;;;5093424;28;20189;-53
2021/05/09 06:07:12;;;;;;;16.00;7.72;;;6.00;99.90;;;;;;5094262;28;20178;-53
2021/05/09 06:09:38;;;;;;;21.30;8.02;;;6.10;99.90;;;;;;5092514;28;20197;-53
2021/05/09 06:12:05;;;;;;;16.38;6.95;;;6.10;99.90;;;;;;5093922;28;20190;-55
2021/05/09 06:14:31;;;;;;;20.85;8.68;;;6.10;99.90;;;;;;5090265;28;20177;-53
2021/05/09 06:16:57;;;;;;;18.05;7.75;;;6.10;99.90;;;;;;5094255;28;20189;-54
2021/05/09 06:19:23;;;;;;;15.98;7.80;;;6.20;99.90;;;;;;5093611;28;20216;-55
2021/05/09 06:21:49;;;;;;;16.10;7.70;;;6.20;99.90;;;;;;5091153;28;20530;-54
2021/05/09 06:24:15;;;;;;;19.90;8.40;;;6.20;99.90;;;;;;5093412;28;20188;-54
2021/05/09 06:26:41;;;;;;;19.38;7.88;;;6.30;99.90;;;;;;5093018;28;20196;-51
2021/05/09 06:29:07;;;;;;;18.75;7.88;;;6.30;99.90;;;;;;5093758;28;20177;-50
2021/05/09 06:31:34;;;;;;;12.85;7.18;;;6.30;99.90;;;;;;5092577;28;20169;-52
2021/05/09 06:34:00;;;;;;;21.05;8.23;;;6.40;99.90;;;;;;5093730;28;20555;-52
2021/05/09 06:36:26;;;;;;;19.77;6.97;;;6.40;99.90;;;;;;5092360;28;20213;-50
2021/05/09 06:38:52;;;;;;;16.60;8.25;;;6.40;99.90;;;;;;5093222;28;20262;-50
2021/05/09 06:41:20;;;;;;;16.88;7.35;;;6.40;99.90;;;;;;5092719;28;20534;-51
2021/05/09 06:43:47;;;;;;;17.17;8.00;;;6.50;99.90;;;;;;5092975;28;20182;-51
2021/05/09 06:46:14;;;;;;;15.88;7.72;;;6.50;99.90;;;;;;5092431;28;20681;-53
2021/05/09 06:48:40;;;;;;;15.20;7.82;;;6.50;99.90;;;;;;5092033;28;20542;-53
2021/05/09 06:51:06;;;;;;;12.95;7.63;;;6.60;99.90;;;;;;5093031;28;20180;-50
2021/05/09 06:53:32;;;;;;;17.67;9.25;;;6.60;99.90;;;;;;5092962;28;20181;-53
2021/05/09 06:55:59;;;;;;;14.65;7.45;;;6.60;99.90;;;;;;5095182;28;20172;-52
2021/05/09 06:58:25;;;;;;;25.85;8.60;;;6.70;99.90;;;;;;5097871;28;20658;-53
2021/05/09 07:00:51;;;;;;;11.95;7.13;;;6.70;99.90;;;;;;5101123;28;20562;-51
2021/05/09 07:03:17;;;;;;;16.92;8.55;;;6.70;99.90;;;;;;5094365;28;20183;-53
2021/05/09 07:05:43;;;;;;;16.10;8.23;;;6.70;99.90;;;;;;5097243;28;20417;-57
2021/05/09 07:08:09;;;;;;;16.58;8.02;;;6.70;99.90;;;;;;5093115;28;20181;-53
2021/05/09 07:10:36;;;;;;;14.20;8.27;;;6.70;99.90;;;;;;5091908;28;20201;-56
2021/05/09 07:13:02;;;;;;;11.45;6.82;;;6.70;99.90;;;;;;5093307;28;20181;-56
2021/05/09 07:15:33;;;;;;;13.80;6.90;;;6.80;99.90;;;;;;5089028;28;20180;-57
2021/05/09 07:18:06;;;;;;;13.20;6.75;;;6.80;99.90;;;;;;5091074;28;20929;-56
2021/05/09 07:20:35;;;;;;;11.98;6.65;;;6.80;99.90;;;;;;5093872;28;20205;-59
2021/05/09 07:23:01;;;;;;;11.02;6.55;;;6.90;99.90;;;;;;5093626;28;20172;-58
2021/05/09 07:25:27;;;;;;;12.85;7.85;;;6.90;99.90;;;;;;5095762;28;20505;-57
2021/05/09 07:27:54;;;;;;;12.93;6.53;;;6.90;99.90;;;;;;5090981;28;20219;-58
2021/05/09 07:30:20;;;;;;;13.05;7.28;;;6.90;99.90;;;;;;5096028;28;20189;-55
2021/05/09 07:32:46;;;;;;;12.50;6.22;;;6.90;99.90;;;;;;5092137;28;20197;-56
2021/05/09 07:35:12;;;;;;;13.70;7.05;;;7.00;99.90;;;;;;5088134;28;20541;-56
2021/05/09 07:37:38;;;;;;;9.75;6.70;;;6.90;99.90;;;;;;5092182;28;20201;-56
2021/05/09 07:40:05;;;;;;;10.55;6.30;;;7.00;99.90;;;;;;5091841;28;20192;-56
2021/05/09 07:42:31;;;;;;;12.65;6.35;;;7.00;99.90;;;;;;5091460;28;20192;-57
2021/05/09 07:44:59;;;;;;;12.10;5.25;;;7.10;99.90;;;;;;5092003;28;20185;-58
2021/05/09 07:47:26;;;;;;;12.00;6.40;;;7.10;99.90;;;;;;5092816;28;20161;-57
2021/05/09 07:49:52;;;;;;;11.30;5.38;;;7.10;99.90;;;;;;5091483;28;20196;-58
2021/05/09 07:52:18;;;;;;;10.70;6.10;;;7.20;99.90;;;;;;5092441;28;20173;-56
2021/05/09 07:54:44;;;;;;;9.15;5.55;;;7.10;99.90;;;;;;5091270;28;20180;-58
2021/05/09 07:57:10;;;;;;;9.80;5.80;;;7.20;99.90;;;;;;5092616;28;20169;-57
2021/05/09 07:59:37;;;;;;;34.05;6.05;;;7.20;99.90;;;;;;5092307;28;20204;-59
2021/05/09 08:02:03;;;;;;;7.13;4.80;;;7.20;99.90;;;;;;5091389;28;20165;-59
2021/05/09 08:04:29;;;;;;;8.20;5.10;;;7.20;99.90;;;;;;5092437;28;20196;-57
2021/05/09 08:06:55;;;;;;;14.48;5.40;;;7.30;99.90;;;;;;5092311;28;20650;-57
2021/05/09 08:09:22;;;;;;;9.52;4.95;;;7.30;99.90;;;;;;5092207;28;20192;-57
2021/05/09 08:11:48;;;;;;;8.68;4.75;;;7.30;99.90;;;;;;5091384;28;20608;-57
2021/05/09 08:14:14;;;;;;;15.63;4.63;;;7.30;99.90;;;;;;5092117;28;20185;-58
2021/05/09 08:16:40;;;;;;;11.85;5.35;;;7.40;99.90;;;;;;5091882;28;20169;-58
2021/05/09 08:19:06;;;;;;;7.13;4.55;;;7.40;99.90;;;;;;5092143;28;20224;-58
2021/05/09 08:21:32;;;;;;;8.07;4.50;;;7.40;99.90;;;;;;5091816;28;20539;-59
2021/05/09 08:23:58;;;;;;;9.20;5.13;;;7.40;99.90;;;;;;5091430;28;20180;-57
2021/05/09 08:26:24;;;;;;;10.93;4.75;;;7.40;99.90;;;;;;5091518;28;20174;-58
2021/05/09 08:28:50;;;;;;;8.32;4.60;;;7.50;99.90;;;;;;5091526;28;20189;-59
2021/05/09 08:31:17;;;;;;;8.80;4.43;;;7.50;99.90;;;;;;5091878;28;20173;-59
2021/05/09 08:33:43;;;;;;;7.28;4.55;;;7.50;99.90;;;;;;5093940;28;20177;-59
2021/05/09 08:36:09;;;;;;;8.02;4.72;;;7.60;99.90;;;;;;5096335;28;20216;-59
2021/05/09 08:38:36;;;;;;;6.95;4.22;;;7.60;99.90;;;;;;5095331;28;20212;-59
2021/05/09 08:41:02;;;;;;;6.38;4.45;;;7.70;99.90;;;;;;5095935;28;20188;-59
2021/05/09 08:43:28;;;;;;;7.38;4.25;;;7.70;99.90;;;;;;5095700;28;20188;-58
2021/05/09 08:45:56;;;;;;;6.53;3.88;;;7.70;99.90;;;;;;5094772;28;20188;-59
2021/05/09 08:48:24;;;;;;;6.55;3.80;;;7.70;99.90;;;;;;5089331;28;20174;-57
2021/05/09 08:50:50;;;;;;;5.07;3.50;;;7.70;99.90;;;;;;5094403;28;20165;-58
2021/05/09 08:53:17;;;;;;;5.53;3.70;;;7.80;99.90;;;;;;5077941;28;20174;-58
2021/05/09 08:55:44;;;;;;;5.43;3.60;;;7.80;99.90;;;;;;5093418;28;20617;-58
2021/05/09 08:58:11;;;;;;;9.52;3.40;;;7.80;99.90;;;;;;5093536;28;20236;-57
2021/05/09 09:00:37;;;;;;;5.53;3.45;;;7.90;99.90;;;;;;5094230;28;20259;-58
2021/05/09 09:03:04;;;;;;;4.20;3.55;;;7.90;99.90;;;;;;5093274;28;20173;-59
2021/05/09 09:05:41;;;;;;;6.82;3.22;;;8.00;99.90;;;;;;5092616;28;20189;-58
2021/05/09 09:08:08;;;;;;;5.03;3.03;;;8.00;99.90;;;;;;5095429;28;20179;-58
2021/05/09 09:10:36;;;;;;;4.30;3.03;;;8.00;99.90;;;;;;5093823;28;20544;-58
2021/05/09 09:13:03;;;;;;;4.13;3.10;;;8.10;99.90;;;;;;5094416;28;20173;-58
2021/05/09 09:15:49;;;;;;;2.90;2.58;;;8.10;99.90;;;;;;5092049;28;20195;-59
2021/05/09 09:18:28;;;;;;;5.53;2.42;;;8.10;99.90;;;;;;5095227;28;20661;-58
2021/05/09 09:20:54;;;;;;;3.85;2.40;;;8.10;99.90;;;;;;5093885;28;20664;-59
2021/05/09 09:23:20;;;;;;;4.63;2.80;;;8.10;99.90;;;;;;5094991;28;20180;-57
2021/05/09 09:25:47;;;;;;;3.83;2.63;;;8.20;99.90;;;;;;5093825;28;20181;-58
2021/05/09 09:28:13;;;;;;;3.90;2.60;;;8.20;99.90;;;;;;5097443;28;20648;-58
2021/05/09 09:30:50;;;;;;;6.38;2.72;;;8.30;99.90;;;;;;5102302;28;20196;-58
2021/05/09 09:33:16;;;;;;;4.45;3.13;;;8.30;99.90;;;;;;5095309;28;20194;-58
2021/05/09 09:35:44;;;;;;;3.70;2.75;;;8.30;99.90;;;;;;5099961;28;20205;-57
2021/05/09 09:38:34;;;;;;;3.95;2.50;;;8.30;99.90;;;;;;5100427;28;20183;-58
2021/05/09 09:41:13;;;;;;;4.45;2.65;;;8.30;99.90;;;;;;5100040;28;20177;-58
2021/05/09 09:43:41;;;;;;;3.42;2.72;;;8.40;99.90;;;;;;5094630;27;20534;-58
2021/05/09 09:46:30;;;;;;;3.22;2.50;;;8.40;99.90;;;;;;5101848;28;20168;-58
2021/05/09 09:48:56;;;;;;;3.83;2.80;;;8.50;99.90;;;;;;5100678;28;20180;-57
2021/05/09 09:51:22;;;;;;;4.15;2.90;;;8.50;99.90;;;;;;5102390;28;20172;-57
2021/05/09 09:53:49;;;;;;;4.95;2.80;;;8.50;99.90;;;;;;5102263;28;20180;-58
2021/05/09 09:56:19;;;;;;;3.67;2.83;;;8.50;99.90;;;;;;5093394;28;20542;-58
2021/05/09 09:58:58;;;;;;;4.93;3.15;;;8.60;99.90;;;;;;5104019;28;20192;-58
2021/05/09 10:01:27;;;;;;;2.97;2.67;;;8.60;99.90;;;;;;5100018;28;20191;-58
2021/05/09 10:04:00;;;;;;;5.18;3.63;;;8.70;99.90;;;;;;5101965;28;20161;-58
2021/05/09 10:06:27;;;;;;;6.22;3.72;;;8.80;99.90;;;;;;5102938;28;20169;-58
2021/05/09 10:08:53;;;;;;;4.22;3.00;;;8.70;99.90;;;;;;5101960;28;20192;-58
2021/05/09 10:11:20;;;;;;;7.18;3.80;;;8.80;99.90;;;;;;5101368;28;20173;-59
2021/05/09 10:13:49;;;;;;;8.25;4.40;;;8.80;99.90;;;;;;5104792;28;20182;-59
2021/05/09 10:16:19;;;;;;;6.28;3.35;;;8.80;99.90;;;;;;5100468;28;20186;-58
2021/05/09 10:18:46;;;;;;;6.70;4.50;;;8.90;99.90;;;;;;5093630;28;20236;-57
2021/05/09 10:21:12;;;;;;;5.78;4.60;;;8.90;99.90;;;;;;5082748;28;20172;-58
2021/05/09 10:24:09;;;;;;;6.78;5.20;;;9.00;99.90;;;;;;5103113;28;20184;-58
2021/05/09 10:26:54;;;;;;;8.65;5.80;;;8.90;99.90;;;;;;5103609;28;20192;-58
2021/05/09 10:29:39;;;;;;;12.50;7.15;;;9.00;99.90;;;;;;5094232;28;20177;-58
2021/05/09 10:32:09;;;;;;;11.48;7.53;;;9.00;99.90;;;;;;5080329;28;20521;-59
2021/05/09 10:35:07;;;;;;;14.75;8.95;;;9.10;99.90;;;;;;5093760;28;20189;-58
2021/05/09 10:40:24;;;;;;;29.00;15.77;;;9.30;99.90;;;;;;5093761;28;20696;-59
2021/05/09 10:43:03;;;;;;;37.95;19.05;;;9.30;99.90;;;;;;5098512;28;20200;-58
2021/05/09 10:45:30;;;;;;;47.70;22.10;;;9.40;99.90;;;;;;5095878;28;20172;-57
2021/05/09 10:50:48;;;;;;;62.47;28.65;;;9.60;99.90;;;;;;5098049;28;20185;-58
2021/05/09 10:53:30;;;;;;;77.93;34.22;;;9.60;99.90;;;;;;5091164;28;20181;-58
2021/05/09 10:55:56;;;;;;;87.35;33.78;;;9.70;99.90;;;;;;5101390;28;20177;-71
2021/05/09 10:58:48;;;;;;;108.90;41.70;;;9.80;99.90;;;;;;5098474;28;20177;-58
2021/05/09 11:01:19;;;;;;;111.70;41.88;;;9.90;99.90;;;;;;5099253;28;20646;-60
2021/05/09 11:04:06;;;;;;;108.28;42.28;;;10.00;99.90;;;;;;5093234;28;20177;-59
2021/05/09 11:06:38;;;;;;;110.55;42.92;;;10.00;99.90;;;;;;5080705;28;20535;-61
2021/05/09 11:09:13;;;;;;;109.00;48.50;;;10.10;99.90;;;;;;5092209;28;20549;-59
2021/05/09 11:11:39;;;;;;;122.75;45.78;;;10.20;99.90;;;;;;5093827;28;20168;-59
2021/05/09 11:14:07;;;;;;;112.43;45.28;;;10.20;99.90;;;;;;5092707;28;20188;-59
2021/05/09 11:16:34;;;;;;;124.70;46.95;;;10.30;99.90;;;;;;5092511;28;20168;-60
2021/05/09 11:19:04;;;;;;;115.05;47.17;;;10.40;99.90;;;;;;5092773;28;20223;-59
2021/05/09 11:21:34;;;;;;;126.53;48.25;;;10.50;99.90;;;;;;5093215;28;20173;-59
2021/05/09 11:24:01;;;;;;;123.10;48.28;;;10.70;99.90;;;;;;5090844;28;20173;-59
2021/05/09 11:26:29;;;;;;;131.27;50.67;;;10.90;99.90;;;;;;5091499;28;20176;-59
2021/05/09 11:29:14;;;;;;;116.93;49.38;;;11.20;99.90;;;;;;5091964;28;20174;-59
2021/05/09 11:31:42;;;;;;;116.03;48.92;;;11.50;99.90;;;;;;5092710;28;20181;-58
2021/05/09 11:34:08;;;;;;;106.65;46.47;;;11.80;99.90;;;;;;5090979;28;20526;-58
2021/05/09 11:36:36;;;;;;;93.32;42.95;;;11.90;99.90;;;;;;5091868;28;20205;-59
2021/05/09 11:39:18;;;;;;;94.50;40.42;;;11.90;99.90;;;;;;5087591;28;20595;-60
2021/05/09 11:41:50;;;;;;;85.68;40.00;;;12.00;99.90;;;;;;5092179;28;20189;-59
2021/05/09 11:44:16;;;;;;;83.07;38.95;;;12.10;99.90;;;;;;5091963;28;20641;-59
2021/05/09 11:46:42;;;;;;;74.72;37.38;;;12.40;99.90;;;;;;5091500;28;20168;-59
2021/05/09 11:49:20;;;;;;;62.65;34.17;;;12.40;99.90;;;;;;5090962;28;20193;-58
2021/05/09 11:51:54;;;;;;;71.20;32.85;;;12.40;99.90;;;;;;5092532;28;20189;-58
2021/05/09 11:54:21;;;;;;;69.68;31.25;;;12.50;99.90;;;;;;5091894;28;20195;-58
2021/05/09 11:56:57;;;;;;;56.83;29.55;;;12.60;99.90;;;;;;5091313;28;20691;-58
2021/05/09 11:59:42;;;;;;;52.13;28.08;;;12.70;99.90;;;;;;5091901;28;20704;-58
2021/05/09 12:02:20;;;;;;;55.95;28.50;;;12.80;99.90;;;;;;5091764;28;20893;-58
2021/05/09 12:05:11;;;;;;;51.95;27.40;;;13.00;99.90;;;;;;5092109;28;20184;-58
2021/05/09 12:07:54;;;;;;;55.13;24.52;;;13.30;99.90;;;;;;5090455;28;20161;-58
2021/05/09 12:10:27;;;;;;;51.83;23.45;;;13.60;99.90;;;;;;5091894;28;20613;-58
2021/05/09 12:12:57;;;;;;;37.80;20.65;;;13.60;99.90;;;;;;5090068;28;20180;-58
2021/05/09 12:15:23;;;;;;;40.38;20.80;;;13.60;99.90;;;;;;5090659;28;20177;-58
2021/05/09 12:17:52;;;;;;;33.30;18.05;;;13.60;99.90;;;;;;5091221;28;20656;-58
2021/05/09 12:20:29;;;;;;;39.45;19.70;;;13.50;99.90;;;;;;5091196;28;20216;-59
2021/05/09 12:22:57;;;;;;;33.92;19.80;;;13.50;99.90;;;;;;5091718;28;20161;-58
2021/05/09 12:25:43;;;;;;;34.00;19.33;;;13.70;99.90;;;;;;5091224;28;20169;-56
2021/05/09 12:28:10;;;;;;;29.08;17.60;;;14.20;99.90;;;;;;5086081;28;20189;-57
2021/05/09 12:30:36;;;;;;;27.08;16.30;;;14.30;99.90;;;;;;5091657;28;20192;-57
2021/05/09 12:33:03;;;;;;;28.33;16.77;;;14.20;99.90;;;;;;5090332;28;20169;-58
2021/05/09 12:35:39;;;;;;;26.63;16.10;;;14.30;99.90;;;;;;5091176;28;20209;-56
2021/05/09 12:38:05;;;;;;;31.50;15.73;;;14.30;99.90;;;;;;5090448;28;20169;-57
2021/05/09 12:40:34;;;;;;;34.72;15.27;;;14.30;99.90;;;;;;5091551;28;20549;-57
2021/05/09 12:43:04;;;;;;;25.98;15.45;;;14.20;99.90;;;;;;5091321;28;20649;-57
2021/05/09 12:45:33;;;;;;;31.92;16.60;;;14.20;99.90;;;;;;5091174;28;20181;-57
2021/05/09 12:48:07;;;;;;;32.40;15.73;;;14.20;99.90;;;;;;5101144;28;20173;-56
2021/05/09 12:50:51;;;;;;;26.65;15.40;;;14.30;99.90;;;;;;5089901;28;20196;-57
2021/05/09 12:53:35;;;;;;;26.52;13.82;;;14.30;99.90;;;;;;5094592;28;20201;-58
2021/05/09 12:56:14;;;;;;;26.75;14.63;;;14.40;99.90;;;;;;5091721;28;20208;-57
2021/05/09 12:58:58;;;;;;;24.00;13.13;;;14.60;99.90;;;;;;5091439;28;20181;-58